createdAt,value
2022-10-26T00:01:21.167Z,99926.63
2022-10-26T00:03:48.710Z,99916.28
2022-10-26T00:06:18.175Z,99914.56
2022-10-26T00:08:46.854Z,99914.53
2022-10-26T00:11:15.282Z,99922.31
2022-10-26T00:13:46.268Z,99924.06
2022-10-26T00:16:17.017Z,99924.09
2022-10-26T00:18:44.952Z,99915.47
2022-10-26T00:21:12.806Z,99923.28
2022-10-26T00:23:40.628Z,99910.28
2022-10-26T00:26:08.821Z,99903.38
2022-10-26T00:28:37.108Z,99906.78
2022-10-26T00:31:08.628Z,99919.72
2022-10-26T00:33:37.047Z,99924.09
2022-10-26T00:36:05.047Z,99924.13
2022-10-26T00:38:32.608Z,99926.66
2022-10-26T00:41:00.256Z,99918.03
2022-10-26T00:43:38.926Z,99927.47
2022-10-26T00:46:12.070Z,99925.75
2022-10-26T00:48:44.133Z,99920.56
2022-10-26T00:51:16.717Z,99919.72
2022-10-26T00:53:45.160Z,99920.63
2022-10-26T00:56:13.199Z,99918.91
2022-10-26T00:58:41.560Z,99911.16
2022-10-26T01:01:11.343Z,99916.28
2022-10-26T01:03:39.623Z,99913.78
2022-10-26T01:06:07.620Z,99912.06
2022-10-26T01:08:35.493Z,99915.50
2022-10-26T01:11:04.228Z,99904.28
2022-10-26T01:13:35.752Z,99902.53
2022-10-26T01:16:24.077Z,99903.44
2022-10-26T01:19:02.805Z,99902.59
2022-10-26T01:21:43.144Z,99889.63
2022-10-26T01:24:24.701Z,99897.34
2022-10-26T01:27:06.175Z,99892.22
2022-10-26T01:29:58.672Z,99875.91
2022-10-26T01:32:33.661Z,99870.72
2022-10-26T01:35:08.162Z,99866.34
2022-10-26T01:37:41.347Z,99853.41
2022-10-26T01:40:17.437Z,99863.72
2022-10-26T01:42:50.251Z,99864.56
2022-10-26T01:45:19.089Z,99867.97
2022-10-26T01:47:49.769Z,99879.22
2022-10-26T01:50:19.309Z,99863.72
2022-10-26T01:52:50.625Z,99863.75
2022-10-26T01:55:41.395Z,99865.50
2022-10-26T01:58:22.726Z,99879.28
2022-10-26T02:01:00.136Z,99879.22
2022-10-26T02:03:38.759Z,99890.44
2022-10-26T02:06:16.932Z,99884.41
2022-10-26T02:08:59.165Z,99879.28
2022-10-26T02:11:37.065Z,99892.19
2022-10-26T02:16:53.461Z,99891.31
2022-10-26T02:19:32.789Z,99885.28
2022-10-26T02:22:06.801Z,99911.09
2022-10-26T02:24:37.665Z,99922.25
2022-10-26T02:27:09.221Z,99928.28
2022-10-26T02:29:37.743Z,99932.59
2022-10-26T02:32:07.242Z,99930.88
2022-10-26T02:34:38.899Z,99929.22
2022-10-26T02:37:08.475Z,99924.91
2022-10-26T02:39:39.505Z,99917.13
2022-10-26T02:42:09.347Z,99912.75
2022-10-26T02:44:42.643Z,99913.59
2022-10-26T02:47:10.580Z,99910.13
2022-10-26T02:49:39.557Z,99915.28
2022-10-26T02:52:12.532Z,99934.19
2022-10-26T02:54:51.620Z,99949.69
2022-10-26T02:57:24.446Z,99947.97
2022-10-26T02:59:53.329Z,99937.63
2022-10-26T03:02:23.095Z,99949.66
2022-10-26T03:04:52.099Z,99951.38
2022-10-26T03:07:23.456Z,99954.78
2022-10-26T03:09:51.079Z,99943.59
2022-10-26T03:12:18.888Z,99937.56
2022-10-26T03:14:46.381Z,99945.31
2022-10-26T03:17:13.911Z,99937.56
2022-10-26T03:19:41.534Z,99940.94
2022-10-26T03:22:10.376Z,99937.50
2022-10-26T03:24:37.896Z,99937.50
2022-10-26T03:27:05.476Z,99942.66
2022-10-26T03:29:33.003Z,99953.00
2022-10-26T03:32:00.530Z,99943.47
2022-10-26T03:34:28.108Z,99941.75
2022-10-26T03:36:55.638Z,99941.81
2022-10-26T03:39:24.591Z,99953.88
2022-10-26T03:44:24.615Z,99947.84
2022-10-26T03:46:52.130Z,99951.28
2022-10-26T03:49:19.786Z,99951.25
2022-10-26T03:51:47.325Z,99946.00
2022-10-26T03:54:14.883Z,99938.25
2022-10-26T03:56:43.750Z,99947.72
2022-10-26T03:59:11.259Z,99947.69
2022-10-26T04:01:38.877Z,99946.69
2022-10-26T04:04:06.586Z,99951.88
2022-10-26T04:06:34.189Z,99945.94
2022-10-26T04:09:02.453Z,99945.97
2022-10-26T04:11:30.016Z,99945.13
2022-10-26T04:13:59.533Z,99945.09
2022-10-26T04:16:31.003Z,99939.88
2022-10-26T04:19:01.075Z,99944.19
2022-10-26T04:21:28.680Z,99925.22
2022-10-26T04:23:56.416Z,99915.75
2022-10-26T04:26:23.977Z,99920.06
2022-10-26T04:28:51.547Z,99918.28
2022-10-26T04:31:20.672Z,99909.66
2022-10-26T04:33:48.227Z,99904.50
2022-10-26T04:36:15.745Z,99895.88
2022-10-26T04:38:43.312Z,99887.31
2022-10-26T04:41:10.816Z,99885.59
2022-10-26T04:43:38.364Z,99858.88
2022-10-26T04:46:06.151Z,99870.13
2022-10-26T04:48:35.050Z,99882.22
2022-10-26T04:51:02.703Z,99905.41
2022-10-26T04:53:30.231Z,99923.50
2022-10-26T04:55:58.262Z,99923.50
2022-10-26T04:58:26.096Z,99917.53
2022-10-26T05:00:53.700Z,99920.13
2022-10-26T05:03:21.370Z,99923.59
2022-10-26T05:05:50.275Z,99932.25
2022-10-26T05:08:17.869Z,99924.56
2022-10-26T05:10:49.786Z,99928.97
2022-10-26T05:13:18.337Z,99931.59
2022-10-26T05:15:45.988Z,99929.94
2022-10-26T05:18:13.492Z,99937.81
2022-10-26T05:20:41.000Z,99939.59
2022-10-26T05:23:12.411Z,99945.69
2022-10-26T05:25:40.175Z,99953.41
2022-10-26T05:28:11.620Z,99966.44
2022-10-26T05:30:39.185Z,99956.13
2022-10-26T05:33:07.550Z,99962.22
2022-10-26T05:35:35.123Z,99970.84
2022-10-26T05:38:08.172Z,99964.78
2022-10-26T05:40:37.552Z,99971.69
2022-10-26T05:43:05.703Z,99969.16
2022-10-26T05:45:33.215Z,99967.44
2022-10-26T05:48:02.865Z,99974.34
2022-10-26T05:50:31.210Z,99977.78
2022-10-26T05:52:58.793Z,99983.75
2022-10-26T05:55:27.144Z,99982.03
2022-10-26T05:57:56.629Z,99986.31
2022-10-26T06:00:26.323Z,99984.56
2022-10-26T06:03:08.460Z,99986.28
2022-10-26T06:05:42.318Z,99995.78
2022-10-26T06:08:11.867Z,100000.03
2022-10-26T06:10:40.506Z,100011.22
2022-10-26T06:13:09.951Z,100019.88
2022-10-26T06:15:48.868Z,100027.63
2022-10-26T06:18:27.596Z,100024.09
2022-10-26T06:21:10.740Z,100030.09
2022-10-26T06:23:51.461Z,100034.53
2022-10-26T06:26:28.959Z,100041.47
2022-10-26T06:29:07.598Z,100045.81
2022-10-26T06:31:35.170Z,100046.66
2022-10-26T06:34:03.115Z,100038.91
2022-10-26T06:36:32.196Z,100039.69
2022-10-26T06:39:03.640Z,100037.91
2022-10-26T06:41:33.520Z,100046.31
2022-10-26T06:44:03.866Z,100043.75
2022-10-26T06:46:38.097Z,100056.78
2022-10-26T06:49:14.762Z,100060.34
2022-10-26T06:51:50.589Z,100055.25
2022-10-26T06:54:24.221Z,100053.56
2022-10-26T06:56:53.347Z,100050.97
2022-10-26T06:59:33.556Z,100044.16
2022-10-26T07:02:04.199Z,100042.44
2022-10-26T07:04:33.979Z,100041.50
2022-10-26T07:07:01.567Z,100041.47
2022-10-26T07:09:29.183Z,100050.13
2022-10-26T07:11:56.796Z,100063.97
2022-10-26T07:14:25.721Z,100060.56
2022-10-26T07:16:53.224Z,100072.69
2022-10-26T07:19:20.762Z,100072.69
2022-10-26T07:21:48.324Z,100072.78
2022-10-26T07:24:16.278Z,100068.53
2022-10-26T07:26:43.804Z,100068.56
2022-10-26T07:29:11.322Z,100069.50
2022-10-26T07:31:40.348Z,100074.72
2022-10-26T07:34:07.861Z,100073.06
2022-10-26T07:36:36.609Z,100089.53
2022-10-26T07:39:04.596Z,100087.84
2022-10-26T07:41:32.613Z,100094.03
2022-10-26T07:44:00.572Z,100094.06
2022-10-26T07:46:29.394Z,100094.16
2022-10-26T07:48:58.278Z,100095.06
2022-10-26T07:51:25.830Z,100101.16
2022-10-26T07:53:53.730Z,100116.75
2022-10-26T07:56:21.294Z,100114.19
2022-10-26T07:58:48.879Z,100113.31
2022-10-26T08:01:17.210Z,100118.56
2022-10-26T08:03:44.965Z,100125.53
2022-10-26T08:06:14.481Z,100129.06
2022-10-26T08:08:45.027Z,100129.16
2022-10-26T08:11:15.248Z,100136.22
2022-10-26T08:13:42.893Z,100128.53
2022-10-26T08:16:10.498Z,100139.81
2022-10-26T08:18:38.074Z,100138.13
2022-10-26T08:21:11.703Z,100132.16
2022-10-26T08:23:42.413Z,100138.22
2022-10-26T08:26:11.329Z,100145.25
2022-10-26T08:28:39.943Z,100140.97
2022-10-26T08:31:08.206Z,100142.69
2022-10-26T08:33:35.774Z,100143.63
2022-10-26T08:36:06.530Z,100141.97
2022-10-26T08:38:34.725Z,100154.13
2022-10-26T08:41:09.357Z,100157.56
2022-10-26T08:43:41.885Z,100160.19
2022-10-26T08:46:14.885Z,100156.75
2022-10-26T08:48:45.569Z,100156.78
2022-10-26T08:51:18.176Z,100158.47
2022-10-26T08:53:51.716Z,100155.06
2022-10-26T08:56:24.757Z,100170.72
2022-10-26T08:58:56.841Z,100164.69
2022-10-26T09:01:24.780Z,100163.84
2022-10-26T09:03:52.680Z,100176.78
2022-10-26T09:06:31.683Z,100184.63
2022-10-26T09:09:08.065Z,100187.25
2022-10-26T09:11:53.545Z,100195.94
2022-10-26T09:14:33.700Z,100183.81
2022-10-26T09:17:12.778Z,100185.56
2022-10-26T09:20:08.002Z,100185.59
2022-10-26T09:22:43.483Z,100182.13
2022-10-26T09:25:19.505Z,100182.25
2022-10-26T09:27:52.604Z,100174.50
2022-10-26T09:30:22.293Z,100177.97
2022-10-26T09:32:53.153Z,100176.22
2022-10-26T09:35:24.325Z,100183.13
2022-10-26T09:37:56.160Z,100184.78
2022-10-26T09:40:28.963Z,100182.97
2022-10-26T09:43:02.138Z,100191.59
2022-10-26T09:45:32.075Z,100197.63
2022-10-26T09:48:06.708Z,100203.66
2022-10-26T09:50:36.697Z,100204.47
2022-10-26T09:53:04.524Z,100207.00
2022-10-26T09:55:33.813Z,100207.84
2022-10-26T09:58:05.326Z,100213.06
2022-10-26T10:03:19.823Z,100222.22
2022-10-26T10:05:52.099Z,100226.31
2022-10-26T10:08:22.413Z,100232.19
2022-10-26T10:10:59.136Z,100238.13
2022-10-26T10:13:31.452Z,100246.63
2022-10-26T10:16:04.614Z,100237.56
2022-10-26T10:18:33.301Z,100248.63
2022-10-26T10:21:01.405Z,100244.00
2022-10-26T10:23:31.970Z,100249.88
2022-10-26T10:26:05.664Z,100243.25
2022-10-26T10:28:35.334Z,100237.97
2022-10-26T10:31:05.157Z,100244.19
2022-10-26T10:33:37.862Z,100242.75
2022-10-26T10:36:09.808Z,100249.59
2022-10-26T10:38:40.780Z,100255.09
2022-10-26T10:41:17.785Z,100250.13
2022-10-26T10:43:49.866Z,100253.09
2022-10-26T10:46:23.433Z,100250.03
2022-10-26T10:48:55.969Z,100263.78
2022-10-26T10:51:26.611Z,100255.69
2022-10-26T10:53:56.811Z,100266.03
2022-10-26T10:56:33.711Z,100267.91
2022-10-26T10:59:34.580Z,100275.03
2022-10-26T11:02:25.330Z,100266.38
2022-10-26T11:05:03.274Z,100272.31
2022-10-26T11:07:33.535Z,100280.34
2022-10-26T11:10:04.866Z,100291.88
2022-10-26T11:12:39.447Z,100287.19
2022-10-26T11:15:12.518Z,100283.88
2022-10-26T11:17:56.181Z,100275.34
2022-10-26T11:20:25.554Z,100281.09
2022-10-26T11:25:43.559Z,100284.13
2022-10-26T11:28:15.242Z,100287.53
2022-10-26T11:30:47.880Z,100281.91
2022-10-26T11:33:24.358Z,100277.56
2022-10-26T11:35:57.400Z,100281.63
2022-10-26T11:38:46.025Z,100285.63
2022-10-26T11:41:26.602Z,100279.50
2022-10-26T11:43:58.752Z,100282.75
2022-10-26T11:46:32.585Z,100276.81
2022-10-26T11:49:06.450Z,100279.44
2022-10-26T11:51:40.480Z,100278.53
2022-10-26T11:54:13.967Z,100286.53
2022-10-26T11:56:47.711Z,100280.31
2022-10-26T11:59:20.072Z,100280.63
2022-10-26T12:01:51.089Z,100287.69
2022-10-26T12:04:21.269Z,100302.66
2022-10-26T12:06:52.131Z,100284.75
2022-10-26T12:09:26.481Z,100289.72
2022-10-26T12:12:03.307Z,100293.22
2022-10-26T12:14:41.180Z,100284.41
2022-10-26T12:17:14.151Z,100283.50
2022-10-26T12:19:50.963Z,100297.41
2022-10-26T12:22:20.172Z,100293.50
2022-10-26T12:25:05.122Z,100310.75
2022-10-26T12:27:49.442Z,100303.34
2022-10-26T12:30:26.885Z,100317.66
2022-10-26T12:32:56.242Z,100314.75
2022-10-26T12:35:39.856Z,100316.53
2022-10-26T12:38:48.229Z,100301.75
2022-10-26T12:41:26.633Z,100317.94
2022-10-26T12:43:59.090Z,100321.53
2022-10-26T12:46:41.933Z,100312.47
2022-10-26T12:49:55.255Z,100323.94
2022-10-26T12:52:30.048Z,100335.13
2022-10-26T12:55:30.824Z,100327.44
2022-10-26T12:58:16.221Z,100323.16
2022-10-26T13:00:52.605Z,100329.44
2022-10-26T13:03:33.612Z,100325.00
2022-10-26T13:06:30.181Z,100326.50
2022-10-26T13:09:00.103Z,100321.47
2022-10-26T13:11:33.071Z,100320.66
2022-10-26T13:14:03.350Z,100320.28
2022-10-26T13:16:31.681Z,100319.22
2022-10-26T13:19:00.580Z,100319.66
2022-10-26T13:21:28.747Z,100323.66
2022-10-26T13:24:05.353Z,100326.91
2022-10-26T13:26:53.576Z,100328.16
2022-10-26T13:29:30.778Z,100328.78
2022-10-26T13:31:59.932Z,100332.72
2022-10-26T13:34:30.833Z,100325.28
2022-10-26T13:37:06.047Z,100336.03
2022-10-26T13:39:39.049Z,100341.22
2022-10-26T13:42:08.137Z,100326.91
2022-10-26T13:44:40.473Z,100332.78
2022-10-26T13:47:11.697Z,100326.06
2022-10-26T13:49:41.231Z,100341.41
2022-10-26T13:52:17.043Z,100337.13
2022-10-26T13:54:50.007Z,100342.63
2022-10-26T13:57:21.301Z,100346.19
2022-10-26T13:59:48.819Z,100338.00
2022-10-26T14:02:19.636Z,100338.03
2022-10-26T14:04:48.738Z,100335.56
2022-10-26T14:07:22.715Z,100341.31
2022-10-26T14:09:57.548Z,100340.72
2022-10-26T14:12:28.857Z,100361.81
2022-10-26T14:15:03.600Z,100363.38
2022-10-26T14:17:31.280Z,100364.84
2022-10-26T14:19:59.052Z,100364.28
2022-10-26T14:22:29.953Z,100363.81
2022-10-26T14:25:00.689Z,100377.59
2022-10-26T14:27:33.134Z,100375.47
2022-10-26T14:30:21.604Z,100376.81
2022-10-26T14:32:49.570Z,100369.88
2022-10-26T14:35:18.205Z,100371.75
2022-10-26T14:37:50.219Z,100373.72
2022-10-26T14:40:21.738Z,100371.53
2022-10-26T14:42:52.296Z,100377.47
2022-10-26T14:45:29.701Z,100376.41
2022-10-26T14:48:06.416Z,100376.75
2022-10-26T14:50:36.492Z,100373.31
2022-10-26T14:53:12.254Z,100368.31
2022-10-26T14:55:50.133Z,100368.88
2022-10-26T14:58:24.193Z,100367.97
2022-10-26T15:01:29.261Z,100373.00
2022-10-26T15:04:01.387Z,100381.31
2022-10-26T15:06:35.250Z,100381.72
2022-10-26T15:09:06.582Z,100388.03
2022-10-26T15:11:36.157Z,100384.34
2022-10-26T15:14:04.153Z,100383.41
2022-10-26T15:16:35.392Z,100388.06
2022-10-26T15:19:09.493Z,100395.28
2022-10-26T15:21:40.400Z,100388.91
2022-10-26T15:24:23.335Z,100392.06
2022-10-26T15:26:52.314Z,100389.97
2022-10-26T15:29:36.961Z,100387.88
2022-10-26T15:34:38.652Z,100403.84
2022-10-26T15:37:06.221Z,100400.28
2022-10-26T15:39:33.782Z,100399.13
2022-10-26T15:42:02.607Z,100402.53
2022-10-26T15:44:30.180Z,100403.13
2022-10-26T15:47:06.418Z,100408.91
2022-10-26T15:49:36.148Z,100409.28
2022-10-26T15:54:36.149Z,100412.59
2022-10-26T15:59:38.371Z,100419.69
2022-10-26T16:02:13.909Z,100427.78
2022-10-26T16:04:41.673Z,100422.69
2022-10-26T16:07:14.082Z,100427.25
2022-10-26T16:09:42.595Z,100429.25
2022-10-26T16:12:12.971Z,100432.94
2022-10-26T16:15:03.871Z,100436.59
2022-10-26T16:17:28.751Z,100440.28
2022-10-26T16:19:56.277Z,100442.97
2022-10-26T16:22:24.008Z,100443.16
2022-10-26T16:24:51.534Z,100445.88
2022-10-26T16:27:20.394Z,100454.69
2022-10-26T16:29:47.927Z,100459.09
2022-10-26T16:32:15.413Z,100461.78
2022-10-26T16:34:42.908Z,100467.06
2022-10-26T16:37:10.441Z,100467.09
2022-10-26T16:39:38.003Z,100468.84
2022-10-26T16:42:06.760Z,100468.00
2022-10-26T16:44:36.368Z,100475.00
2022-10-26T16:47:03.993Z,100485.44
2022-10-26T16:49:31.465Z,100476.69
2022-10-26T16:51:59.051Z,100490.59
2022-10-26T16:54:26.863Z,100486.25
2022-10-26T16:56:54.460Z,100496.69
2022-10-26T16:59:21.993Z,100505.31
2022-10-26T17:01:50.937Z,100494.88
2022-10-26T17:04:18.546Z,100497.44
2022-10-26T17:06:46.120Z,100511.28
2022-10-26T17:09:13.625Z,100500.81
2022-10-26T17:11:41.177Z,100512.91
2022-10-26T17:14:08.865Z,100511.16
2022-10-26T17:16:36.453Z,100517.16
2022-10-26T17:19:05.348Z,100518.88
2022-10-26T17:21:35.023Z,100517.09
2022-10-26T17:24:02.901Z,100519.63
2022-10-26T17:26:30.479Z,100523.97
2022-10-26T17:28:58.806Z,100527.41
2022-10-26T17:31:26.925Z,100538.66
2022-10-26T17:33:54.950Z,100542.06
2022-10-26T17:36:25.611Z,100548.97
2022-10-26T17:38:54.428Z,100553.28
2022-10-26T17:41:23.084Z,100548.91
2022-10-26T17:43:51.580Z,100559.22
2022-10-26T17:46:20.818Z,100564.41
2022-10-26T17:48:48.353Z,100566.94
2022-10-26T17:51:17.869Z,100568.63
2022-10-26T17:53:48.641Z,100567.69
2022-10-26T17:56:19.225Z,100566.78
2022-10-26T17:58:51.309Z,100577.09
2022-10-26T18:01:18.971Z,100575.28
2022-10-26T18:03:46.605Z,100578.69
2022-10-26T18:06:14.913Z,100584.75
2022-10-26T18:08:42.491Z,100580.38
2022-10-26T18:11:15.164Z,100586.41
2022-10-26T18:13:42.806Z,100588.91
2022-10-26T18:16:12.071Z,100600.97
2022-10-26T18:18:40.754Z,100592.19
2022-10-26T18:21:10.033Z,100600.72
2022-10-26T18:23:38.095Z,100602.38
2022-10-26T18:26:11.404Z,100614.41
2022-10-26T18:28:42.481Z,100607.34
2022-10-26T18:31:12.305Z,100614.19
2022-10-26T18:33:40.185Z,100615.88
2022-10-26T18:36:10.455Z,100617.53
2022-10-26T18:38:39.877Z,100624.38
2022-10-26T18:41:09.113Z,100618.25
2022-10-26T18:43:40.624Z,100622.53
2022-10-26T18:46:12.137Z,100619.00
2022-10-26T18:48:41.712Z,100624.16
2022-10-26T18:51:10.886Z,100634.56
2022-10-26T18:53:40.304Z,100636.28
2022-10-26T18:56:09.625Z,100634.47
2022-10-26T18:58:38.812Z,100639.66
2022-10-26T19:01:10.604Z,100638.63
2022-10-26T19:03:39.137Z,100642.94
2022-10-26T19:06:11.531Z,100642.84
2022-10-26T19:08:39.263Z,100651.41
2022-10-26T19:11:09.137Z,100658.25
2022-10-26T19:13:37.180Z,100652.09
2022-10-26T19:16:12.572Z,100652.03
2022-10-26T19:18:46.651Z,100649.44
2022-10-26T19:21:15.903Z,100646.75
2022-10-26T19:23:45.996Z,100652.78
2022-10-26T19:26:15.080Z,100663.94
2022-10-26T19:28:42.811Z,100656.06
2022-10-26T19:31:12.462Z,100656.06
2022-10-26T19:33:40.126Z,100655.13
2022-10-26T19:36:12.841Z,100657.66
2022-10-26T19:38:40.862Z,100661.09
2022-10-26T19:41:11.110Z,100661.91
2022-10-26T19:43:39.262Z,100659.22
2022-10-26T19:46:09.103Z,100666.91
2022-10-26T19:48:37.483Z,100670.44
2022-10-26T19:51:05.749Z,100671.22
2022-10-26T19:53:35.099Z,100674.56
2022-10-26T19:56:03.499Z,100672.75
2022-10-26T19:58:32.446Z,100671.00
2022-10-26T20:01:01.096Z,100670.94
2022-10-26T20:03:29.487Z,100670.94
2022-10-26T20:05:57.662Z,100678.69
2022-10-26T20:08:25.556Z,100677.72
2022-10-26T20:10:57.061Z,100677.66
2022-10-26T20:13:25.177Z,100674.03
2022-10-26T20:15:53.509Z,100673.97
2022-10-26T20:18:21.215Z,100675.66
2022-10-26T20:20:48.866Z,100672.16
2022-10-26T20:23:16.570Z,100671.22
2022-10-26T20:25:47.249Z,100673.81
2022-10-26T20:28:16.825Z,100679.09
2022-10-26T20:30:45.225Z,100685.97
2022-10-26T20:33:12.909Z,100687.63
2022-10-26T20:35:41.004Z,100696.13
2022-10-26T20:38:16.301Z,100691.69
2022-10-26T20:40:44.800Z,100695.69
2022-10-26T20:43:19.246Z,100698.06
2022-10-26T20:45:47.409Z,100698.03
2022-10-26T20:48:16.103Z,100704.06
2022-10-26T20:50:52.590Z,100698.91
2022-10-26T20:53:28.604Z,100704.16
2022-10-26T20:56:03.524Z,100699.13
2022-10-26T21:02:37.535Z,100705.03
2022-10-26T21:05:06.055Z,100702.34
2022-10-26T21:07:33.624Z,100704.03
2022-10-26T21:10:01.180Z,100716.84
2022-10-26T21:12:29.839Z,100707.25
2022-10-26T21:14:57.391Z,100707.13
2022-10-26T21:17:24.912Z,100700.09
2022-10-26T21:19:53.813Z,100717.28
2022-10-26T21:22:21.343Z,100711.19
2022-10-26T21:24:48.890Z,100718.84
2022-10-26T21:27:16.410Z,100711.75
2022-10-26T21:29:45.189Z,100721.13
2022-10-26T21:32:13.374Z,100722.78
2022-10-26T21:34:41.000Z,100731.38
2022-10-26T21:37:09.871Z,100714.97
2022-10-26T21:39:37.452Z,100714.88
2022-10-26T21:42:05.049Z,100718.31
2022-10-26T21:44:40.934Z,100719.97
2022-10-26T21:47:09.554Z,100726.81
2022-10-26T21:49:37.365Z,100721.53
2022-10-26T21:52:05.252Z,100724.91
2022-10-26T21:54:34.361Z,100717.97
2022-10-26T21:57:01.911Z,100724.81
2022-10-26T21:59:29.448Z,100723.94
2022-10-26T22:01:57.193Z,100728.94
2022-10-26T22:04:24.821Z,100716.75
2022-10-26T22:06:52.359Z,100728.78
2022-10-26T22:09:19.998Z,100727.84
2022-10-26T22:11:48.936Z,100730.41
2022-10-26T22:14:17.866Z,100722.53
2022-10-26T22:16:45.780Z,100727.66
2022-10-26T22:19:13.336Z,100727.56
2022-10-26T22:21:42.281Z,100730.97
2022-10-26T22:24:11.054Z,100730.81
2022-10-26T22:26:38.885Z,100737.63
2022-10-26T22:29:07.835Z,100737.63
2022-10-26T22:31:38.502Z,100735.81
2022-10-26T22:34:08.210Z,100735.72
2022-10-26T22:36:36.666Z,100733.88
2022-10-26T22:39:04.905Z,100734.72
2022-10-26T22:41:32.510Z,100726.88
2022-10-26T22:44:00.128Z,100729.56
2022-10-26T22:46:29.235Z,100726.06
2022-10-26T22:48:58.198Z,100725.13
2022-10-26T22:51:27.376Z,100727.63
2022-10-26T22:53:55.979Z,100727.63
2022-10-26T22:56:24.690Z,100730.13
2022-10-26T22:58:52.926Z,100731.69
2022-10-26T23:01:22.400Z,100735.13
2022-10-26T23:03:52.748Z,100729.84
2022-10-26T23:06:20.900Z,100735.00
2022-10-26T23:08:48.624Z,100732.41
2022-10-26T23:11:18.908Z,100734.06
2022-10-26T23:13:46.525Z,100742.56
2022-10-26T23:16:16.382Z,100736.41
2022-10-26T23:18:43.864Z,100746.72
2022-10-26T23:21:13.911Z,100744.09
2022-10-26T23:23:42.016Z,100742.38
2022-10-26T23:26:12.015Z,100744.09
2022-10-26T23:28:39.914Z,100751.84
2022-10-26T23:31:08.165Z,100742.38
2022-10-26T23:33:36.094Z,100744.91
2022-10-26T23:36:03.605Z,100744.72
2022-10-26T23:38:32.452Z,100754.97
2022-10-26T23:41:01.102Z,100750.63
2022-10-26T23:43:29.108Z,100751.38
2022-10-26T23:45:57.081Z,100747.84
2022-10-26T23:48:24.828Z,100749.53
2022-10-26T23:50:53.072Z,100751.09
2022-10-26T23:53:22.787Z,100752.75
2022-10-26T23:55:52.253Z,100752.66
2022-10-26T23:58:21.508Z,100754.31
